createdAt,value
2018-11-11T00:00:06.951Z,85.08
2018-11-11T00:01:06.987Z,84.31
2018-11-11T00:02:07.020Z,84.41
2018-11-11T00:03:07.051Z,84.60
2018-11-11T00:04:07.088Z,84.88
2018-11-11T00:05:07.122Z,84.88
2018-11-11T00:06:07.151Z,84.88
2018-11-11T00:07:07.185Z,84.69
2018-11-11T00:08:07.218Z,83.93
2018-11-11T00:09:07.254Z,84.69
2018-11-11T00:10:07.286Z,85.08
2018-11-11T00:11:07.317Z,84.60
2018-11-11T00:12:07.359Z,84.88
2018-11-11T00:13:07.385Z,85.27
2018-11-11T00:14:07.418Z,85.08
2018-11-11T00:15:07.450Z,85.27
2018-11-11T00:16:07.487Z,84.69
2018-11-11T00:17:07.518Z,84.79
2018-11-11T00:18:07.549Z,84.79
2018-11-11T00:19:07.584Z,84.88
2018-11-11T00:20:07.616Z,84.88
2018-11-11T00:21:07.650Z,84.79
2018-11-11T00:22:07.683Z,84.79
2018-11-11T00:23:07.717Z,84.88
2018-11-11T00:24:07.751Z,84.79
2018-11-11T00:25:07.783Z,85.08
2018-11-11T00:26:07.816Z,85.17
2018-11-11T00:27:07.851Z,84.88
2018-11-11T00:28:07.892Z,84.98
2018-11-11T00:29:07.916Z,84.79
2018-11-11T00:30:07.947Z,84.69
2018-11-11T00:31:07.982Z,84.98
2018-11-11T00:32:08.018Z,84.79
2018-11-11T00:33:08.049Z,85.08
2018-11-11T00:34:08.080Z,85.08
2018-11-11T00:35:08.118Z,84.69
2018-11-11T00:36:08.147Z,85.17
2018-11-11T00:37:08.182Z,84.88
2018-11-11T00:38:08.213Z,84.88
2018-11-11T00:39:08.246Z,84.79
2018-11-11T00:40:08.283Z,85.36
2018-11-11T00:41:08.313Z,85.27
2018-11-11T00:42:08.346Z,84.88
2018-11-11T00:43:08.384Z,85.08
2018-11-11T00:44:08.414Z,84.79
2018-11-11T00:45:08.446Z,85.27
2018-11-11T00:46:08.479Z,85.27
2018-11-11T00:47:08.510Z,84.60
2018-11-11T00:48:08.545Z,85.36
2018-11-11T00:49:08.578Z,84.60
2018-11-11T00:50:08.610Z,85.36
2018-11-11T00:51:08.644Z,84.88
2018-11-11T00:52:08.679Z,85.17
2018-11-11T00:53:08.710Z,85.17
2018-11-11T00:54:08.743Z,85.17
2018-11-11T00:55:08.777Z,85.08
2018-11-11T00:56:08.811Z,85.08
2018-11-11T00:57:08.854Z,84.69
2018-11-11T00:58:08.876Z,84.50
2018-11-11T00:59:08.908Z,85.27
2018-11-11T01:00:08.942Z,85.27
2018-11-11T01:01:08.978Z,84.98
2018-11-11T01:02:09.008Z,85.27
2018-11-11T01:03:09.041Z,85.55
2018-11-11T01:04:09.075Z,85.08
2018-11-11T01:05:09.108Z,84.79
2018-11-11T01:06:09.140Z,84.98
2018-11-11T01:07:09.174Z,85.46
2018-11-11T01:08:09.206Z,85.46
2018-11-11T01:09:09.252Z,85.55
2018-11-11T01:10:09.277Z,85.64
2018-11-11T01:11:09.307Z,85.27
2018-11-11T01:12:09.360Z,85.84
2018-11-11T01:13:09.373Z,85.36
2018-11-11T01:14:09.405Z,84.98
2018-11-11T01:15:09.437Z,84.98
2018-11-11T01:16:09.471Z,85.08
2018-11-11T01:17:09.503Z,85.55
2018-11-11T01:18:09.537Z,85.64
2018-11-11T01:19:09.570Z,85.08
2018-11-11T01:20:09.606Z,84.79
2018-11-11T01:21:09.636Z,85.36
2018-11-11T01:22:09.673Z,85.08
2018-11-11T01:23:09.701Z,85.08
2018-11-11T01:24:09.739Z,85.08
2018-11-11T01:25:09.769Z,85.08
2018-11-11T01:26:09.801Z,85.08
2018-11-11T01:27:09.957Z,85.08
2018-11-11T01:28:09.872Z,84.88
2018-11-11T01:29:09.901Z,85.36
2018-11-11T01:30:09.934Z,85.27
2018-11-11T01:31:09.966Z,84.98
2018-11-11T01:32:09.999Z,85.36
2018-11-11T01:33:10.033Z,85.08
2018-11-11T01:34:10.065Z,85.17
2018-11-11T01:35:10.098Z,85.27
2018-11-11T01:36:10.131Z,85.27
2018-11-11T01:37:10.163Z,85.46
2018-11-11T01:38:10.198Z,84.60
2018-11-11T01:39:10.234Z,84.50
2018-11-11T01:40:10.264Z,85.27
2018-11-11T01:41:10.298Z,84.60
2018-11-11T01:42:10.330Z,85.27
2018-11-11T01:43:10.362Z,84.50
2018-11-11T01:44:10.396Z,84.98
2018-11-11T01:45:10.430Z,85.27
2018-11-11T01:46:10.461Z,85.27
2018-11-11T01:47:10.495Z,85.27
2018-11-11T01:48:10.532Z,85.27
2018-11-11T01:49:10.560Z,85.27
2018-11-11T01:50:10.593Z,85.17
2018-11-11T01:51:10.627Z,85.36
2018-11-11T01:52:10.661Z,85.27
2018-11-11T01:53:10.696Z,84.69
2018-11-11T01:54:10.730Z,84.98
2018-11-11T01:55:10.764Z,85.36
2018-11-11T01:56:10.797Z,84.98
2018-11-11T01:57:10.827Z,85.27
2018-11-11T01:58:10.861Z,85.17
2018-11-11T01:59:10.895Z,85.08
2018-11-11T02:00:10.926Z,85.08
2018-11-11T02:01:10.961Z,84.60
2018-11-11T02:02:10.991Z,84.41
2018-11-11T02:03:11.024Z,84.41
2018-11-11T02:04:11.058Z,85.17
2018-11-11T02:05:11.093Z,85.27
2018-11-11T02:06:11.123Z,85.27
2018-11-11T02:07:11.156Z,84.98
2018-11-11T02:08:11.194Z,85.17
2018-11-11T02:09:11.227Z,85.27
2018-11-11T02:10:11.256Z,84.41
2018-11-11T02:11:11.291Z,85.55
2018-11-11T02:12:11.322Z,85.55
2018-11-11T02:13:11.355Z,84.98
2018-11-11T02:14:11.390Z,84.88
2018-11-11T02:15:11.421Z,84.94
2018-11-11T02:16:11.454Z,85.03
2018-11-11T02:17:11.522Z,84.98
2018-11-11T02:18:11.521Z,84.75
2018-11-11T02:19:11.555Z,84.94
2018-11-11T02:20:11.589Z,84.94
2018-11-11T02:21:11.652Z,84.75
2018-11-11T02:22:11.653Z,85.41
2018-11-11T02:23:11.696Z,85.51
2018-11-11T02:24:11.723Z,84.94
2018-11-11T02:25:11.752Z,85.55
2018-11-11T02:26:11.784Z,84.79
2018-11-11T02:27:11.819Z,85.60
2018-11-11T02:28:11.850Z,85.74
2018-11-11T02:29:11.886Z,85.60
2018-11-11T02:30:11.919Z,85.08
2018-11-11T02:31:11.950Z,85.08
2018-11-11T02:32:11.985Z,85.64
2018-11-11T02:33:12.017Z,84.94
2018-11-11T02:34:12.048Z,84.79
2018-11-11T02:35:12.087Z,85.64
2018-11-11T02:36:12.121Z,85.03
2018-11-11T02:37:12.150Z,85.64
2018-11-11T02:38:12.181Z,85.03
2018-11-11T02:39:12.214Z,84.94
2018-11-11T02:40:12.250Z,85.03
2018-11-11T02:41:12.280Z,85.13
2018-11-11T02:42:12.316Z,85.03
2018-11-11T02:43:12.348Z,84.94
2018-11-11T02:44:12.378Z,85.32
2018-11-11T02:45:12.416Z,85.51
2018-11-11T02:46:12.445Z,85.41
2018-11-11T02:47:12.477Z,84.75
2018-11-11T02:48:12.516Z,84.94
2018-11-11T02:49:12.545Z,84.65
2018-11-11T02:50:12.576Z,84.94
2018-11-11T02:51:12.607Z,85.41
2018-11-11T02:52:12.641Z,85.99
2018-11-11T02:53:12.677Z,85.51
2018-11-11T02:54:12.707Z,85.51
2018-11-11T02:55:12.739Z,84.75
2018-11-11T02:56:12.787Z,84.65
2018-11-11T02:57:12.806Z,84.94
2018-11-11T02:58:12.852Z,84.94
2018-11-11T02:59:12.874Z,84.94
2018-11-11T03:00:12.912Z,85.03
2018-11-11T03:01:12.944Z,85.41
2018-11-11T03:02:12.971Z,85.22
2018-11-11T03:03:13.006Z,85.32
2018-11-11T03:04:13.068Z,85.41
2018-11-11T03:05:13.070Z,85.41
2018-11-11T03:06:13.101Z,85.32
2018-11-11T03:07:13.137Z,85.51
2018-11-11T03:08:13.171Z,85.41
2018-11-11T03:09:13.201Z,85.13
2018-11-11T03:10:13.234Z,85.80
2018-11-11T03:11:13.265Z,85.03
2018-11-11T03:12:13.298Z,85.51
2018-11-11T03:13:13.331Z,84.94
2018-11-11T03:14:13.366Z,85.32
2018-11-11T03:15:13.401Z,85.22
2018-11-11T03:16:13.429Z,85.41
2018-11-11T03:17:13.468Z,85.41
2018-11-11T03:18:13.496Z,85.41
2018-11-11T03:19:13.528Z,85.51
2018-11-11T03:20:13.560Z,85.32
2018-11-11T03:21:13.593Z,84.84
2018-11-11T03:22:13.625Z,84.65
2018-11-11T03:23:13.659Z,84.94
2018-11-11T03:24:13.696Z,84.94
2018-11-11T03:25:13.727Z,85.41
2018-11-11T03:26:13.757Z,84.65
2018-11-11T03:27:13.794Z,85.51
2018-11-11T03:28:13.825Z,84.94
2018-11-11T03:29:13.856Z,85.03
2018-11-11T03:30:13.888Z,85.32
2018-11-11T03:31:13.922Z,85.51
2018-11-11T03:32:13.956Z,85.32
2018-11-11T03:33:13.990Z,85.32
2018-11-11T03:34:14.020Z,85.51
2018-11-11T03:35:14.054Z,85.32
2018-11-11T03:36:14.088Z,85.41
2018-11-11T03:37:14.119Z,85.32
2018-11-11T03:38:14.151Z,85.32
2018-11-11T03:39:14.185Z,86.08
2018-11-11T03:40:14.218Z,85.32
2018-11-11T03:41:14.251Z,85.41
2018-11-11T03:42:14.287Z,85.13
2018-11-11T03:43:14.316Z,84.75
2018-11-11T03:44:14.349Z,84.94
2018-11-11T03:45:14.384Z,84.94
2018-11-11T03:46:14.418Z,84.94
2018-11-11T03:47:14.448Z,85.32
2018-11-11T03:48:14.480Z,85.32
2018-11-11T03:49:14.513Z,84.94
2018-11-11T03:50:14.548Z,85.41
2018-11-11T03:51:14.577Z,85.60
2018-11-11T03:52:14.612Z,85.60
2018-11-11T03:53:14.648Z,85.60
2018-11-11T03:54:14.683Z,84.75
2018-11-11T03:55:14.711Z,85.03
2018-11-11T03:56:14.744Z,84.94
2018-11-11T03:57:14.776Z,85.51
2018-11-11T03:58:14.809Z,85.41
2018-11-11T03:59:14.843Z,85.22
2018-11-11T04:00:14.874Z,85.60
2018-11-11T04:01:14.910Z,85.51
2018-11-11T04:02:14.937Z,85.60
2018-11-11T04:03:14.973Z,85.60
2018-11-11T04:04:15.006Z,85.70
2018-11-11T04:05:15.039Z,85.60
2018-11-11T04:06:15.072Z,85.60
2018-11-11T04:07:15.104Z,85.32
2018-11-11T04:08:15.139Z,85.32
2018-11-11T04:09:15.169Z,85.41
2018-11-11T04:10:15.248Z,85.32
2018-11-11T04:11:15.234Z,85.41
2018-11-11T04:12:15.267Z,84.94
2018-11-11T04:13:15.300Z,84.94
2018-11-11T04:14:15.334Z,84.75
2018-11-11T04:15:15.365Z,85.13
2018-11-11T04:16:15.399Z,85.03
2018-11-11T04:17:15.432Z,84.94
2018-11-11T04:18:15.462Z,84.94
2018-11-11T04:19:15.496Z,85.32
2018-11-11T04:20:15.528Z,85.32
2018-11-11T04:21:15.563Z,85.51
2018-11-11T04:22:15.594Z,85.70
2018-11-11T04:23:15.626Z,85.56
2018-11-11T04:24:15.659Z,85.60
2018-11-11T04:25:15.693Z,85.56
2018-11-11T04:26:15.725Z,85.56
2018-11-11T04:27:15.758Z,85.32
2018-11-11T04:28:15.790Z,85.60
2018-11-11T04:29:15.822Z,85.51
2018-11-11T04:30:15.903Z,85.60
2018-11-11T04:31:15.887Z,85.51
2018-11-11T04:32:15.924Z,85.60
2018-11-11T04:33:15.953Z,85.56
2018-11-11T04:34:15.988Z,85.56
2018-11-11T04:35:16.017Z,85.56
2018-11-11T04:36:16.051Z,85.47
2018-11-11T04:37:16.082Z,85.66
2018-11-11T04:38:16.114Z,85.37
2018-11-11T04:39:16.161Z,85.66
2018-11-11T04:40:16.180Z,85.47
2018-11-11T04:41:16.213Z,85.94
2018-11-11T04:42:16.245Z,86.13
2018-11-11T04:43:16.292Z,86.13
2018-11-11T04:44:16.311Z,86.13
2018-11-11T04:45:16.342Z,85.75
2018-11-11T04:46:16.386Z,86.13
2018-11-11T04:47:16.408Z,86.18
2018-11-11T04:48:16.439Z,86.04
2018-11-11T04:49:16.472Z,85.80
2018-11-11T04:50:16.507Z,85.60
2018-11-11T04:51:16.542Z,85.75
2018-11-11T04:52:16.571Z,85.66
2018-11-11T04:53:16.602Z,85.18
2018-11-11T04:54:16.639Z,86.04
2018-11-11T04:55:16.667Z,85.75
2018-11-11T04:56:16.700Z,86.13
2018-11-11T04:57:16.732Z,86.13
2018-11-11T04:58:16.763Z,86.22
2018-11-11T04:59:16.797Z,86.13
2018-11-11T05:00:16.830Z,85.94
2018-11-11T05:01:16.902Z,86.13
2018-11-11T05:02:16.894Z,86.22
2018-11-11T05:03:16.927Z,86.13
2018-11-11T05:04:16.959Z,86.04
2018-11-11T05:05:16.992Z,85.94
2018-11-11T05:06:17.026Z,85.75
2018-11-11T05:07:17.056Z,86.13
2018-11-11T05:08:17.087Z,85.94
2018-11-11T05:09:17.124Z,85.94
2018-11-11T05:10:17.153Z,86.22
2018-11-11T05:11:17.185Z,86.04
2018-11-11T05:12:17.218Z,85.75
2018-11-11T05:13:17.252Z,85.75
2018-11-11T05:14:17.282Z,86.22
2018-11-11T05:15:17.317Z,85.94
2018-11-11T05:16:17.348Z,86.22
2018-11-11T05:17:17.381Z,86.04
2018-11-11T05:18:17.413Z,85.94
2018-11-11T05:19:17.446Z,86.13
2018-11-11T05:20:17.478Z,86.04
2018-11-11T05:21:17.511Z,85.66
2018-11-11T05:22:17.544Z,85.75
2018-11-11T05:23:17.579Z,85.94
2018-11-11T05:24:17.607Z,86.04
2018-11-11T05:25:17.641Z,86.04
2018-11-11T05:26:17.672Z,86.04
2018-11-11T05:27:17.706Z,86.04
2018-11-11T05:28:17.738Z,85.75
2018-11-11T05:29:17.771Z,86.04
2018-11-11T05:30:17.803Z,85.94
2018-11-11T05:31:17.837Z,86.04
2018-11-11T05:32:17.873Z,86.04
2018-11-11T05:33:17.901Z,86.32
2018-11-11T05:34:17.931Z,85.75
2018-11-11T05:35:17.965Z,86.04
2018-11-11T05:36:18.002Z,86.22
2018-11-11T05:37:18.029Z,85.85
2018-11-11T05:38:18.061Z,86.42
2018-11-11T05:39:18.097Z,85.94
2018-11-11T05:40:18.127Z,86.42
2018-11-11T05:41:18.159Z,86.13
2018-11-11T05:42:18.191Z,85.80
2018-11-11T05:43:18.224Z,85.85
2018-11-11T05:44:18.257Z,85.66
2018-11-11T05:45:18.290Z,85.85
2018-11-11T05:46:18.321Z,85.80
2018-11-11T05:47:18.354Z,86.04
2018-11-11T05:48:18.387Z,85.47
2018-11-11T05:49:18.421Z,85.94
2018-11-11T05:50:18.451Z,85.75
2018-11-11T05:51:18.484Z,85.80
2018-11-11T05:52:18.518Z,85.56
2018-11-11T05:53:18.550Z,85.85
2018-11-11T05:54:18.582Z,85.85
2018-11-11T05:55:18.614Z,85.94
2018-11-11T05:56:18.647Z,85.28
2018-11-11T05:57:18.679Z,86.04
2018-11-11T05:58:18.711Z,85.47
2018-11-11T05:59:18.744Z,85.94
2018-11-11T06:00:18.776Z,85.94
2018-11-11T06:01:18.809Z,86.13
2018-11-11T06:02:18.841Z,85.85
2018-11-11T06:03:18.875Z,85.85
2018-11-11T06:04:18.907Z,86.04
2018-11-11T06:05:18.939Z,85.94
2018-11-11T06:06:18.971Z,85.85
2018-11-11T06:07:19.003Z,85.75
2018-11-11T06:08:19.037Z,85.89
2018-11-11T06:09:19.069Z,86.04
2018-11-11T06:10:19.101Z,85.18
2018-11-11T06:11:19.133Z,85.47
2018-11-11T06:12:19.167Z,85.70
2018-11-11T06:13:19.199Z,85.89
2018-11-11T06:14:19.231Z,85.41
2018-11-11T06:15:19.264Z,85.37
2018-11-11T06:16:19.296Z,85.60
2018-11-11T06:17:19.329Z,85.60
2018-11-11T06:18:19.361Z,85.70
2018-11-11T06:19:19.405Z,85.41
2018-11-11T06:20:19.426Z,85.89
2018-11-11T06:21:19.459Z,85.70
2018-11-11T06:22:19.490Z,85.70
2018-11-11T06:23:19.523Z,85.51
2018-11-11T06:24:19.555Z,85.80
2018-11-11T06:25:19.590Z,85.13
2018-11-11T06:26:19.621Z,85.13
2018-11-11T06:27:19.691Z,85.41
2018-11-11T06:28:19.690Z,85.32
2018-11-11T06:29:19.717Z,85.22
2018-11-11T06:30:19.751Z,85.41
2018-11-11T06:31:19.785Z,85.70
2018-11-11T06:32:19.815Z,85.22
2018-11-11T06:33:19.847Z,85.13
2018-11-11T06:34:19.880Z,85.32
2018-11-11T06:35:19.914Z,85.32
2018-11-11T06:36:19.950Z,85.32
2018-11-11T06:37:19.979Z,85.51
2018-11-11T06:38:20.011Z,85.41
2018-11-11T06:39:20.044Z,85.41
2018-11-11T06:40:20.077Z,85.32
2018-11-11T06:41:20.110Z,85.41
2018-11-11T06:42:20.149Z,85.32
2018-11-11T06:43:20.173Z,85.51
2018-11-11T06:44:20.207Z,85.03
2018-11-11T06:45:20.239Z,85.60
2018-11-11T06:46:20.269Z,85.41
2018-11-11T06:47:20.307Z,85.22
2018-11-11T06:48:20.338Z,85.22
2018-11-11T06:49:20.371Z,85.22
2018-11-11T06:50:20.401Z,85.32
2018-11-11T06:51:20.433Z,85.03
2018-11-11T06:52:20.467Z,85.51
2018-11-11T06:53:20.497Z,85.80
2018-11-11T06:54:20.533Z,85.60
2018-11-11T06:55:20.564Z,85.60
2018-11-11T06:56:20.597Z,85.51
2018-11-11T06:57:20.630Z,85.32
2018-11-11T06:58:20.661Z,85.70
2018-11-11T06:59:20.695Z,85.41
2018-11-11T07:00:20.728Z,85.60
2018-11-11T07:01:20.760Z,85.60
2018-11-11T07:02:20.792Z,85.60
2018-11-11T07:03:20.824Z,85.51
2018-11-11T07:04:20.861Z,85.80
2018-11-11T07:05:20.892Z,85.51
2018-11-11T07:06:20.923Z,85.80
2018-11-11T07:07:21.014Z,85.32
2018-11-11T07:08:20.989Z,85.51
2018-11-11T07:09:21.020Z,84.94
2018-11-11T07:10:21.054Z,85.41
2018-11-11T07:11:21.090Z,85.41
2018-11-11T07:12:21.118Z,85.22
2018-11-11T07:13:21.151Z,85.41
2018-11-11T07:14:21.187Z,84.84
2018-11-11T07:15:21.215Z,84.84
2018-11-11T07:16:21.249Z,85.70
2018-11-11T07:17:21.282Z,84.94
2018-11-11T07:18:21.313Z,85.51
2018-11-11T07:19:21.347Z,85.41
2018-11-11T07:20:21.381Z,85.60
2018-11-11T07:21:21.411Z,85.32
2018-11-11T07:22:21.443Z,85.41
2018-11-11T07:23:21.527Z,85.32
2018-11-11T07:24:21.516Z,85.03
2018-11-11T07:25:21.542Z,85.22
2018-11-11T07:26:21.575Z,85.32
2018-11-11T07:27:21.609Z,85.41
2018-11-11T07:28:21.640Z,85.41
2018-11-11T07:29:21.675Z,85.13
2018-11-11T07:30:21.710Z,85.22
2018-11-11T07:31:21.744Z,85.32
2018-11-11T07:32:21.771Z,85.03
2018-11-11T07:33:21.805Z,85.51
2018-11-11T07:34:21.836Z,85.03
2018-11-11T07:35:21.870Z,85.80
2018-11-11T07:36:21.903Z,85.51
2018-11-11T07:37:21.935Z,85.32
2018-11-11T07:38:21.966Z,85.32
2018-11-11T07:39:21.999Z,85.60
2018-11-11T07:40:22.033Z,84.84
2018-11-11T07:41:22.074Z,84.75
2018-11-11T07:42:22.164Z,85.32
2018-11-11T07:43:22.130Z,85.32
2018-11-11T07:44:22.161Z,85.60
2018-11-11T07:45:22.196Z,85.41
2018-11-11T07:46:22.228Z,85.32
2018-11-11T07:47:22.260Z,85.51
2018-11-11T07:48:22.295Z,85.80
2018-11-11T07:49:22.327Z,85.51
2018-11-11T07:50:22.361Z,85.70
2018-11-11T07:51:22.394Z,85.03
2018-11-11T07:52:22.431Z,85.03
2018-11-11T07:53:22.463Z,85.03
2018-11-11T07:54:22.489Z,85.32
2018-11-11T07:55:22.557Z,85.32
2018-11-11T07:56:22.555Z,85.32
2018-11-11T07:57:22.593Z,85.41
2018-11-11T07:58:22.627Z,85.22
2018-11-11T07:59:22.655Z,85.60
2018-11-11T08:00:22.693Z,85.32
2018-11-11T08:01:22.760Z,85.41
2018-11-11T08:02:22.751Z,85.32
2018-11-11T08:03:22.786Z,85.89
2018-11-11T08:04:22.819Z,85.13
2018-11-11T08:05:22.850Z,85.22
2018-11-11T08:06:22.882Z,85.22
2018-11-11T08:07:22.918Z,85.32
2018-11-11T08:08:22.948Z,85.32
2018-11-11T08:09:22.979Z,85.60
2018-11-11T08:10:23.013Z,85.60
2018-11-11T08:11:23.046Z,85.60
2018-11-11T08:12:23.080Z,85.41
2018-11-11T08:13:23.112Z,85.03
2018-11-11T08:14:23.144Z,85.89
2018-11-11T08:15:23.176Z,85.41
2018-11-11T08:16:23.210Z,85.51
2018-11-11T08:17:23.293Z,85.89
2018-11-11T08:18:23.273Z,85.89
2018-11-11T08:19:23.307Z,85.60
2018-11-11T08:20:23.339Z,85.60
2018-11-11T08:21:23.372Z,85.80
2018-11-11T08:22:23.404Z,85.70
2018-11-11T08:23:23.437Z,85.51
2018-11-11T08:24:23.472Z,85.51
2018-11-11T08:25:23.563Z,85.51
2018-11-11T08:26:23.533Z,85.51
2018-11-11T08:27:23.570Z,85.70
2018-11-11T08:28:23.598Z,85.51
2018-11-11T08:29:23.633Z,85.41
2018-11-11T08:30:23.668Z,85.60
2018-11-11T08:31:23.699Z,85.13
2018-11-11T08:32:23.792Z,85.22
2018-11-11T08:33:23.764Z,85.41
2018-11-11T08:34:27.373Z,85.41
2018-11-11T08:35:23.828Z,85.03
2018-11-11T08:36:23.861Z,85.51
2018-11-11T08:37:23.894Z,85.60
2018-11-11T08:38:23.926Z,85.80
2018-11-11T08:39:23.960Z,85.32
2018-11-11T08:40:24.024Z,85.51
2018-11-11T08:41:24.025Z,85.51
2018-11-11T08:42:24.057Z,85.51
2018-11-11T08:43:24.089Z,85.41
2018-11-11T08:44:24.123Z,85.64
2018-11-11T08:45:24.155Z,85.32
2018-11-11T08:46:24.186Z,85.36
2018-11-11T08:47:24.220Z,85.46
2018-11-11T08:48:24.351Z,85.36
2018-11-11T08:49:24.286Z,85.64
2018-11-11T08:50:24.317Z,84.94
2018-11-11T08:51:24.350Z,84.79
2018-11-11T08:52:24.384Z,84.98
2018-11-11T08:53:24.417Z,84.98
2018-11-11T08:54:24.447Z,85.17
2018-11-11T08:55:24.482Z,85.17
2018-11-11T08:56:24.516Z,85.08
2018-11-11T08:57:24.549Z,85.64
2018-11-11T08:58:24.580Z,84.84
2018-11-11T08:59:24.625Z,85.08
2018-11-11T09:00:24.647Z,85.84
2018-11-11T09:01:24.679Z,85.36
2018-11-11T09:02:24.712Z,85.41
2018-11-11T09:03:24.746Z,84.79
2018-11-11T09:04:24.776Z,85.46
2018-11-11T09:05:24.811Z,85.60
2018-11-11T09:06:24.846Z,85.60
2018-11-11T09:07:24.879Z,84.98
2018-11-11T09:08:24.912Z,85.64
2018-11-11T09:09:24.941Z,85.08
2018-11-11T09:10:24.974Z,85.41
2018-11-11T09:11:25.020Z,85.64
2018-11-11T09:12:25.040Z,84.98
2018-11-11T09:13:25.073Z,85.08
2018-11-11T09:14:25.103Z,85.74
2018-11-11T09:15:25.137Z,84.79
2018-11-11T09:16:25.179Z,84.98
2018-11-11T09:17:25.271Z,85.55
2018-11-11T09:18:25.234Z,84.98
2018-11-11T09:19:25.269Z,84.88
2018-11-11T09:20:25.300Z,84.98
2018-11-11T09:21:25.374Z,84.98
2018-11-11T09:22:25.371Z,85.08
2018-11-11T09:23:25.401Z,85.36
2018-11-11T09:24:25.433Z,85.46
2018-11-11T09:25:25.488Z,85.46
2018-11-11T09:26:25.497Z,84.98
2018-11-11T09:27:25.532Z,84.79
2018-11-11T09:28:25.562Z,85.08
2018-11-11T09:29:25.646Z,85.36
2018-11-11T09:30:25.764Z,85.55
2018-11-11T09:31:25.660Z,85.74
2018-11-11T09:32:25.694Z,85.64
2018-11-11T09:33:25.728Z,84.98
2018-11-11T09:34:25.760Z,84.98
2018-11-11T09:35:25.938Z,85.74
2018-11-11T09:36:25.827Z,85.64
2018-11-11T09:37:25.861Z,85.08
2018-11-11T09:38:25.890Z,85.55
2018-11-11T09:39:25.925Z,85.93
2018-11-11T09:40:25.997Z,85.64
2018-11-11T09:41:25.992Z,85.74
2018-11-11T09:42:26.056Z,85.84
2018-11-11T09:43:26.057Z,85.93
2018-11-11T09:44:26.090Z,85.74
2018-11-11T09:45:26.123Z,84.98
2018-11-11T09:46:26.153Z,85.50
2018-11-11T09:47:26.188Z,85.69
2018-11-11T09:48:26.222Z,85.60
2018-11-11T09:49:26.255Z,85.64
2018-11-11T09:50:26.285Z,85.78
2018-11-11T09:51:26.321Z,85.50
2018-11-11T09:52:26.356Z,85.60
2018-11-11T09:53:26.388Z,85.50
2018-11-11T09:54:26.419Z,85.41
2018-11-11T09:55:26.454Z,85.69
2018-11-11T09:56:26.485Z,85.36
2018-11-11T09:57:26.524Z,85.88
2018-11-11T09:58:26.607Z,85.74
2018-11-11T09:59:26.585Z,85.69
2018-11-11T10:00:26.620Z,86.22
2018-11-11T10:01:26.651Z,86.32
2018-11-11T10:02:26.683Z,86.32
2018-11-11T10:03:26.717Z,86.03
2018-11-11T10:04:26.760Z,86.12
2018-11-11T10:05:26.784Z,86.16
2018-11-11T10:06:26.864Z,86.12
2018-11-11T10:07:26.849Z,86.03
2018-11-11T10:08:26.882Z,86.12
2018-11-11T10:09:26.916Z,85.84
2018-11-11T10:10:26.947Z,86.98
2018-11-11T10:11:26.982Z,86.69
2018-11-11T10:12:27.073Z,86.79
2018-11-11T10:13:27.047Z,86.88
2018-11-11T10:14:27.079Z,86.88
2018-11-11T10:15:27.113Z,86.60
2018-11-11T10:16:27.147Z,86.79
2018-11-11T10:17:27.182Z,86.69
2018-11-11T10:18:27.212Z,86.79
2018-11-11T10:19:27.244Z,86.98
2018-11-11T10:20:27.401Z,87.17
2018-11-11T10:21:27.316Z,87.17
2018-11-11T10:22:27.343Z,87.17
2018-11-11T10:23:27.378Z,87.07
2018-11-11T10:24:27.410Z,87.07
2018-11-11T10:25:27.443Z,86.98
2018-11-11T10:26:27.474Z,86.98
2018-11-11T10:27:27.517Z,86.98
2018-11-11T10:28:27.542Z,86.88
2018-11-11T10:29:27.601Z,87.17
2018-11-11T10:30:27.609Z,87.07
2018-11-11T10:31:27.640Z,86.88
2018-11-11T10:32:27.673Z,86.98
2018-11-11T10:33:27.790Z,87.07
2018-11-11T10:34:27.741Z,86.98
2018-11-11T10:35:27.771Z,87.07
2018-11-11T10:36:27.805Z,87.17
2018-11-11T10:37:27.930Z,87.46
2018-11-11T10:38:27.871Z,87.07
2018-11-11T10:39:27.915Z,86.88
2018-11-11T10:40:27.937Z,86.88
2018-11-11T10:41:27.971Z,86.98
2018-11-11T10:42:28.002Z,87.17
2018-11-11T10:43:28.036Z,86.98
2018-11-11T10:44:28.148Z,87.07
2018-11-11T10:45:28.103Z,87.07
2018-11-11T10:46:28.135Z,86.98
2018-11-11T10:47:28.167Z,86.98
2018-11-11T10:48:28.201Z,86.98
2018-11-11T10:49:28.234Z,86.88
2018-11-11T10:50:28.266Z,87.07
2018-11-11T10:51:28.301Z,87.07
2018-11-11T10:52:28.334Z,87.07
2018-11-11T10:53:28.368Z,87.07
2018-11-11T10:54:28.481Z,86.98
2018-11-11T10:55:28.435Z,87.17
2018-11-11T10:56:28.464Z,87.07
2018-11-11T10:57:28.500Z,87.65
2018-11-11T10:58:28.532Z,87.55
2018-11-11T10:59:28.564Z,87.74
2018-11-11T11:00:28.597Z,87.55
2018-11-11T11:01:28.634Z,87.65
2018-11-11T11:02:28.660Z,87.46
2018-11-11T11:03:28.696Z,87.65
2018-11-11T11:04:28.730Z,87.74
2018-11-11T11:05:28.763Z,87.74
2018-11-11T11:06:28.794Z,87.55
2018-11-11T11:07:28.825Z,87.93
2018-11-11T11:08:28.860Z,87.74
2018-11-11T11:09:28.893Z,87.84
2018-11-11T11:10:28.927Z,87.93
2018-11-11T11:11:28.958Z,87.93
2018-11-11T11:12:28.992Z,87.36
2018-11-11T11:13:29.128Z,87.65
2018-11-11T11:14:29.056Z,88.03
2018-11-11T11:15:29.094Z,87.93
2018-11-11T11:16:29.125Z,87.93
2018-11-11T11:17:29.159Z,88.03
2018-11-11T11:18:29.188Z,87.55
2018-11-11T11:19:29.223Z,87.55
2018-11-11T11:20:29.253Z,88.22
2018-11-11T11:21:29.287Z,88.03
2018-11-11T11:22:29.321Z,88.22
2018-11-11T11:23:29.352Z,88.51
2018-11-11T11:24:29.386Z,88.60
2018-11-11T11:25:29.423Z,89.17
2018-11-11T11:26:29.449Z,88.98
2018-11-11T11:27:29.484Z,89.07
2018-11-11T11:28:29.516Z,88.98
2018-11-11T11:29:29.548Z,89.17
2018-11-11T11:30:29.581Z,89.17
2018-11-11T11:31:29.682Z,89.26
2018-11-11T11:32:29.649Z,89.55
2018-11-11T11:33:29.681Z,89.94
2018-11-11T11:34:29.711Z,89.46
2018-11-11T11:35:29.808Z,89.55
2018-11-11T11:36:29.778Z,89.94
2018-11-11T11:37:29.812Z,89.75
2018-11-11T11:38:29.860Z,89.55
2018-11-11T11:39:29.880Z,90.03
2018-11-11T11:40:29.908Z,89.36
2018-11-11T11:41:30.097Z,89.46
2018-11-11T11:42:29.972Z,89.36
2018-11-11T11:43:30.009Z,89.65
2018-11-11T11:44:30.039Z,89.26
2018-11-11T11:45:30.071Z,88.98
2018-11-11T11:46:30.104Z,89.65
2018-11-11T11:47:30.214Z,89.26
2018-11-11T11:48:30.171Z,89.36
2018-11-11T11:49:30.218Z,89.55
2018-11-11T11:50:30.246Z,89.55
2018-11-11T11:51:30.279Z,89.75
2018-11-11T11:52:30.375Z,89.94
2018-11-11T11:53:30.348Z,89.55
2018-11-11T11:54:30.365Z,89.65
2018-11-11T11:55:30.411Z,90.50
2018-11-11T11:56:30.432Z,90.31
2018-11-11T11:57:30.472Z,90.03
2018-11-11T11:58:30.495Z,89.94
2018-11-11T11:59:30.529Z,89.84
2018-11-11T12:00:30.566Z,90.12
2018-11-11T12:01:30.603Z,90.03
2018-11-11T12:02:30.632Z,90.60
2018-11-11T12:03:30.666Z,90.50
2018-11-11T12:04:30.692Z,90.70
2018-11-11T12:05:30.730Z,91.08
2018-11-11T12:06:30.757Z,91.55
2018-11-11T12:07:30.789Z,91.46
2018-11-11T12:08:30.857Z,91.55
2018-11-11T12:09:30.858Z,91.65
2018-11-11T12:10:30.888Z,91.94
2018-11-11T12:11:30.926Z,92.32
2018-11-11T12:12:30.955Z,92.50
2018-11-11T12:13:30.987Z,92.13
2018-11-11T12:14:31.017Z,91.94
2018-11-11T12:15:31.052Z,92.41
2018-11-11T12:16:31.139Z,92.60
2018-11-11T12:17:31.119Z,92.79
2018-11-11T12:18:31.162Z,92.98
2018-11-11T12:19:31.181Z,92.13
2018-11-11T12:20:31.213Z,92.89
2018-11-11T12:21:31.248Z,92.41
2018-11-11T12:22:31.281Z,92.41
2018-11-11T12:23:31.312Z,92.89
2018-11-11T12:24:31.345Z,92.79
2018-11-11T12:25:31.377Z,92.98
2018-11-11T12:26:31.416Z,92.41
2018-11-11T12:27:31.443Z,92.13
2018-11-11T12:28:31.478Z,92.41
2018-11-11T12:29:31.511Z,93.17
2018-11-11T12:30:31.663Z,92.69
2018-11-11T12:31:31.576Z,92.89
2018-11-11T12:32:31.609Z,93.22
2018-11-11T12:33:31.641Z,93.03
2018-11-11T12:34:31.673Z,92.74
2018-11-11T12:35:31.707Z,92.27
2018-11-11T12:36:31.740Z,92.55
2018-11-11T12:37:31.773Z,92.55
2018-11-11T12:38:31.803Z,92.65
2018-11-11T12:39:31.981Z,92.17
2018-11-11T12:40:31.871Z,92.36
2018-11-11T12:41:31.905Z,92.08
2018-11-11T12:42:31.936Z,92.03
2018-11-11T12:43:31.970Z,92.69
2018-11-11T12:44:32.007Z,92.03
2018-11-11T12:45:32.035Z,91.64
2018-11-11T12:46:32.072Z,91.83
2018-11-11T12:47:32.102Z,91.55
2018-11-11T12:48:32.135Z,91.74
2018-11-11T12:49:32.170Z,91.74
2018-11-11T12:50:32.250Z,91.46
2018-11-11T12:51:32.234Z,91.74
2018-11-11T12:52:32.272Z,91.64